PWSweather.com
Personal Weather Stations
Station Observations
HYDERMT7
Hyder Mountain, Clyde, NC 28721

Hyder MountainClyde, NC 28721

Lat: 35.562788, Lon: -82.934487

Elevation: 2800

Station Type: Weather Wise Instruments

Latest ConditionsUpdated 12:30:00 PM EDT Thursday, Oct 30, 2014
Currently Today's Max Today's Min Today's Average
Temperature 62.1°F16.7°C 62.1°F16.7°C 28.9°F-1.7°C 38.2°F3.4°C
Dew Point 44.2°F6.8°C 49.7°F9.8°C 28.7°F-1.8°C 36.0°F2.2°C
Winds Calm Calm Calm Calm - Calm Calm
Wind Gusts -- -- - -
Humidity 52% 99% 52% 93%
Pressure 29.90 in1012.5 mb 29.93 in1013.5 mb 29.89 in1012.2 mb -
Precipitation - 0.01 in0.3 mm - -
Hour Temp Dew Point Humidity Winds Wind Gusts Pressure Precip Precip Rate Daily Precip Total
12:30 PM 62.1°F16.7°C 44.2°F6.8°C 52% Calm Calm -- 29.90 in1012.5 mb 0.01 in0.3 mm 0.00 in/hr0.0 mm/hr 0.01 in0.3 mm
12:15 PM 61.9°F16.6°C 45.1°F7.3°C 54% Calm Calm -- 29.91 in1012.9 mb 0.01 in0.3 mm 0.00 in/hr0.0 mm/hr 0.01 in0.3 mm
12:00 PM 61.7°F16.5°C 46.8°F8.2°C 58% Calm Calm -- 29.91 in1012.9 mb 0.01 in0.3 mm 0.00 in/hr0.0 mm/hr 0.01 in0.3 mm
11:45 AM 60.6°F15.9°C 48.4°F9.1°C 64% Calm Calm -- 29.91 in1012.9 mb 0.01 in0.3 mm 0.04 in/hr1.0 mm/hr 0.01 in0.3 mm
11:30 AM 59.0°F15.0°C 48.5°F9.2°C 68% Calm Calm -- 29.92 in1013.2 mb 0.00 in0.0 mm 0.00 in/hr0.0 mm/hr 0.00 in0.0 mm
11:15 AM 56.8°F13.8°C 49.7°F9.8°C 77% Calm Calm -- 29.91 in1012.9 mb 0.00 in0.0 mm 0.00 in/hr0.0 mm/hr 0.00 in0.0 mm
11:00 AM 55.8°F13.2°C 49.7°F9.8°C 80% Calm Calm -- 29.92 in1013.2 mb 0.00 in0.0 mm 0.00 in/hr0.0 mm/hr 0.00 in0.0 mm
10:45 AM 53.4°F11.9°C 48.4°F9.1°C 83% Calm Calm -- 29.93 in1013.5 mb 0.00 in0.0 mm 0.00 in/hr0.0 mm/hr 0.00 in0.0 mm
10:30 AM 51.8°F11.0°C 46.8°F8.2°C 83% Calm Calm -- 29.92 in1013.2 mb 0.00 in0.0 mm 0.00 in/hr0.0 mm/hr 0.00 in0.0 mm
10:15 AM 51.8°F11.0°C 48.4°F9.1°C 88% Calm Calm -- 29.93 in1013.5 mb 0.00 in0.0 mm 0.00 in/hr0.0 mm/hr 0.00 in0.0 mm
10:00 AM 50.0°F10.0°C 47.8°F8.8°C 92% Calm Calm -- 29.93 in1013.5 mb 0.00 in0.0 mm 0.00 in/hr0.0 mm/hr 0.00 in0.0 mm
09:45 AM 46.4°F8.0°C 46.1°F7.8°C 99% Calm Calm -- 29.93 in1013.5 mb 0.00 in0.0 mm 0.00 in/hr0.0 mm/hr 0.00 in0.0 mm
09:30 AM 44.4°F6.9°C 44.2°F6.8°C 99% Calm Calm -- 29.93 in1013.5 mb 0.00 in0.0 mm 0.00 in/hr0.0 mm/hr 0.00 in0.0 mm
09:15 AM 37.2°F2.9°C 37.0°F2.8°C 99% Calm Calm -- 29.93 in1013.5 mb 0.00 in0.0 mm 0.00 in/hr0.0 mm/hr 0.00 in0.0 mm
09:00 AM 29.8°F-1.2°C 29.6°F-1.3°C 99% Calm Calm -- 29.93 in1013.5 mb 0.00 in0.0 mm 0.00 in/hr0.0 mm/hr 0.00 in0.0 mm
08:45 AM 28.9°F-1.7°C 28.7°F-1.8°C 99% Calm Calm -- 29.93 in1013.5 mb 0.00 in0.0 mm 0.00 in/hr0.0 mm/hr 0.00 in0.0 mm
08:30 AM 28.9°F-1.7°C 28.7°F-1.8°C 99% Calm Calm -- 29.92 in1013.2 mb 0.00 in0.0 mm 0.00 in/hr0.0 mm/hr 0.00 in0.0 mm
08:15 AM 28.9°F-1.7°C 28.7°F-1.8°C 99% Calm Calm -- 29.92 in1013.2 mb 0.00 in0.0 mm 0.00 in/hr0.0 mm/hr 0.00 in0.0 mm
08:00 AM 29.3°F-1.5°C 29.1°F-1.6°C 99% Calm Calm -- 29.93 in1013.5 mb 0.00 in0.0 mm 0.00 in/hr0.0 mm/hr 0.00 in0.0 mm
07:45 AM 29.7°F-1.3°C 29.4°F-1.4°C 99% Calm Calm -- 29.93 in1013.5 mb 0.00 in0.0 mm 0.00 in/hr0.0 mm/hr 0.00 in0.0 mm
07:30 AM 29.7°F-1.3°C 29.4°F-1.4°C 99% Calm Calm -- 29.92 in1013.2 mb 0.00 in0.0 mm 0.00 in/hr0.0 mm/hr 0.00 in0.0 mm
07:15 AM 29.1°F-1.6°C 28.9°F-1.7°C 99% Calm Calm -- 29.92 in1013.2 mb 0.00 in0.0 mm 0.00 in/hr0.0 mm/hr 0.00 in0.0 mm
07:00 AM 29.1°F-1.6°C 28.9°F-1.7°C 99% Calm Calm -- 29.91 in1012.9 mb 0.00 in0.0 mm 0.00 in/hr0.0 mm/hr 0.00 in0.0 mm
06:45 AM 29.3°F-1.5°C 29.1°F-1.6°C 99% Calm Calm -- 29.91 in1012.9 mb 0.00 in0.0 mm 0.00 in/hr0.0 mm/hr 0.00 in0.0 mm
06:30 AM 29.3°F-1.5°C 29.1°F-1.6°C 99% Calm Calm -- 29.91 in1012.9 mb 0.00 in0.0 mm 0.00 in/hr0.0 mm/hr 0.00 in0.0 mm
06:15 AM 29.7°F-1.3°C 29.4°F-1.4°C 99% Calm Calm -- 29.91 in1012.9 mb 0.00 in0.0 mm 0.00 in/hr0.0 mm/hr 0.00 in0.0 mm
06:00 AM 30.0°F-1.1°C 29.8°F-1.2°C 99% Calm Calm -- 29.91 in1012.9 mb 0.00 in0.0 mm 0.00 in/hr0.0 mm/hr 0.00 in0.0 mm
05:45 AM 29.8°F-1.2°C 29.6°F-1.3°C 99% Calm Calm -- 29.91 in1012.9 mb 0.00 in0.0 mm 0.00 in/hr0.0 mm/hr 0.00 in0.0 mm
05:30 AM 30.0°F-1.1°C 29.8°F-1.2°C 99% Calm Calm -- 29.91 in1012.9 mb 0.00 in0.0 mm 0.00 in/hr0.0 mm/hr 0.00 in0.0 mm
05:15 AM 30.2°F-1.0°C 30.0°F-1.1°C 99% Calm Calm -- 29.91 in1012.9 mb 0.00 in0.0 mm 0.00 in/hr0.0 mm/hr 0.00 in0.0 mm
05:00 AM 30.9°F-0.6°C 30.7°F-0.7°C 99% Calm Calm -- 29.90 in1012.5 mb 0.00 in0.0 mm 0.00 in/hr0.0 mm/hr 0.00 in0.0 mm
04:45 AM 31.6°F-0.2°C 31.4°F-0.3°C 99% Calm Calm -- 29.90 in1012.5 mb 0.00 in0.0 mm 0.00 in/hr0.0 mm/hr 0.00 in0.0 mm
04:30 AM 32.0°F0.0°C 31.8°F-0.1°C 99% Calm Calm -- 29.90 in1012.5 mb 0.00 in0.0 mm 0.00 in/hr0.0 mm/hr 0.00 in0.0 mm
04:15 AM 32.7°F0.4°C 32.5°F0.3°C 99% Calm Calm -- 29.89 in1012.2 mb 0.00 in0.0 mm 0.00 in/hr0.0 mm/hr 0.00 in0.0 mm
04:00 AM 34.0°F1.1°C 33.7°F0.9°C 99% Calm Calm -- 29.90 in1012.5 mb 0.00 in0.0 mm 0.00 in/hr0.0 mm/hr 0.00 in0.0 mm
03:45 AM 34.9°F1.6°C 34.6°F1.4°C 99% Calm Calm -- 29.90 in1012.5 mb 0.00 in0.0 mm 0.00 in/hr0.0 mm/hr 0.00 in0.0 mm
03:30 AM 35.1°F1.7°C 34.8°F1.6°C 99% Calm Calm -- 29.90 in1012.5 mb 0.00 in0.0 mm 0.00 in/hr0.0 mm/hr 0.00 in0.0 mm
03:15 AM 35.1°F1.7°C 34.8°F1.6°C 99% Calm Calm -- 29.90 in1012.5 mb 0.00 in0.0 mm 0.00 in/hr0.0 mm/hr 0.00 in0.0 mm
03:00 AM 35.1°F1.7°C 34.8°F1.6°C 99% Calm Calm -- 29.90 in1012.5 mb 0.00 in0.0 mm 0.00 in/hr0.0 mm/hr 0.00 in0.0 mm
02:45 AM 35.1°F1.7°C 34.8°F1.6°C 99% Calm Calm -- 29.90 in1012.5 mb 0.00 in0.0 mm 0.00 in/hr0.0 mm/hr 0.00 in0.0 mm
02:30 AM 35.4°F1.9°C 35.2°F1.8°C 99% Calm Calm -- 29.90 in1012.5 mb 0.00 in0.0 mm 0.00 in/hr0.0 mm/hr 0.00 in0.0 mm
02:15 AM 35.4°F1.9°C 35.2°F1.8°C 99% Calm Calm -- 29.91 in1012.9 mb 0.00 in0.0 mm 0.00 in/hr0.0 mm/hr 0.00 in0.0 mm
02:00 AM 35.6°F2.0°C 35.4°F1.9°C 99% Calm Calm -- 29.91 in1012.9 mb 0.00 in0.0 mm 0.00 in/hr0.0 mm/hr 0.00 in0.0 mm
01:45 AM 35.4°F1.9°C 35.2°F1.8°C 99% Calm Calm -- 29.91 in1012.9 mb 0.00 in0.0 mm 0.00 in/hr0.0 mm/hr 0.00 in0.0 mm
01:30 AM 35.2°F1.8°C 35.0°F1.7°C 99% Calm Calm -- 29.91 in1012.9 mb 0.00 in0.0 mm 0.00 in/hr0.0 mm/hr 0.00 in0.0 mm
01:15 AM 35.1°F1.7°C 34.8°F1.6°C 99% Calm Calm -- 29.91 in1012.9 mb 0.00 in0.0 mm 0.00 in/hr0.0 mm/hr 0.00 in0.0 mm
01:00 AM 35.1°F1.7°C 34.8°F1.6°C 99% Calm Calm -- 29.91 in1012.9 mb 0.00 in0.0 mm 0.00 in/hr0.0 mm/hr 0.00 in0.0 mm
12:45 AM 34.7°F1.5°C 34.5°F1.4°C 99% Calm Calm -- 29.91 in1012.9 mb 0.00 in0.0 mm 0.00 in/hr0.0 mm/hr 0.00 in0.0 mm
12:30 AM 34.9°F1.6°C 34.6°F1.4°C 99% Calm Calm -- 29.91 in1012.9 mb 0.00 in0.0 mm 0.00 in/hr0.0 mm/hr 0.00 in0.0 mm
12:15 AM 35.1°F1.7°C 34.8°F1.6°C 99% Calm Calm -- 29.92 in1013.2 mb 0.00 in0.0 mm 0.00 in/hr0.0 mm/hr 0.00 in0.0 mm
12:00 AM 35.2°F1.8°C 35.0°F1.7°C 99% Calm Calm -- 29.93 in1013.5 mb 0.00 in0.0 mm 0.00 in/hr0.0 mm/hr 0.00 in0.0 mm